map of JJI home
JJI - Airport
Location
City:  Juanjuí, San Martín, Perú
Name:Juanjuí Airport
ICAO:SPJI
IATA:JJI

Details
Type:Airport (Aerodrome, Airfield)
Use:Public/Civil
Latitude:7°10'11"S (-7.169721)
Longitude:76°43'45"W (-76.729166)
Elevation:1148 ft (350 m)
Variation:3.48°W (WMM2015 magnetic declination)
-0.17° annual change
Runways:1
Longest:6562 × 98 ft (2000 × 30 m)

Time
Time Zone:UTC-5
Local Time:

Weather
METAR:SPJI 142100Z 19005KT 9999 FEW025 SCT200 31/25 Q1014 RMK TX32.0 PP000
TAF:SPJI 141700Z 1418/1518 00000KT 9999 SCT020 BKN080 TX30/1418Z TN20/1511Z PROB40 1418/1420 36010KT -SHRA BKN020 FEW040TCU
TEMPO 1503/1507 24014KT 3000 -TSRA FEW010CB BKN070

Related Locations
Nearby:
Farthest:KBR: 12342 mi / 19862 km
Kota Bharu [Sultan Ismail Petra], 03, MY

Find:

   beyond  
but within

Other Information
Maps:
NOTAMs:
Links:
Sources:

  
  • flag of Perú
  

Sectional Chart

Flight Planning
at skyvector.com

Satellite Image

Google Maps Satellite view

 

Copyright © 2004-2018 Karl L. Swartz. All rights reserved.
The Great Circle Mapper name and logo are trademarks of the Great Circle Mapper.
All other trademarks mentioned herein belong to their respective owners.
Please see credits for attibutions and further copyright information.

  Follow gcmap on Facebook Follow gcmap on Twitter Follow gcmap on Google+ GCmap on LinkedIn

hCard Microformat

Geo Microformat